createdAt,value
2023-02-11T00:01:55.377Z,8.37
2023-02-11T00:05:03.459Z,8.73
2023-02-11T00:08:08.923Z,8.33
2023-02-11T00:11:17.728Z,8.70
2023-02-11T00:14:23.580Z,8.70
2023-02-11T00:17:29.740Z,8.57
2023-02-11T00:20:36.659Z,8.60
2023-02-11T00:23:42.860Z,8.60
2023-02-11T00:26:48.720Z,8.40
2023-02-11T00:29:55.706Z,8.73
2023-02-11T00:33:01.379Z,8.70
2023-02-11T00:36:12.059Z,9.30
2023-02-11T00:39:17.879Z,8.37
2023-02-11T00:42:24.613Z,8.73
2023-02-11T00:45:30.777Z,9.00
2023-02-11T00:48:38.089Z,8.83
2023-02-11T00:51:45.281Z,9.50
2023-02-11T00:54:51.639Z,8.90
2023-02-11T00:57:58.871Z,8.70
2023-02-11T01:01:06.259Z,9.10
2023-02-11T01:04:12.022Z,8.70
2023-02-11T01:07:19.783Z,9.53
2023-02-11T01:10:25.629Z,9.17
2023-02-11T01:13:32.272Z,10.60
2023-02-11T01:16:38.082Z,12.17
2023-02-11T01:19:44.282Z,10.50
2023-02-11T01:22:51.198Z,12.30
2023-02-11T01:25:57.418Z,10.90
2023-02-11T01:29:03.056Z,9.83
2023-02-11T01:32:09.209Z,9.47
2023-02-11T01:35:15.183Z,10.93
2023-02-11T01:38:26.022Z,9.27
2023-02-11T01:41:31.619Z,9.90
2023-02-11T01:44:40.463Z,8.60
2023-02-11T01:47:46.369Z,9.67
2023-02-11T01:50:58.416Z,9.90
2023-02-11T01:54:26.061Z,9.67
2023-02-11T01:57:35.124Z,9.03
2023-02-11T02:00:42.667Z,9.87
2023-02-11T02:03:53.674Z,10.37
2023-02-11T02:07:04.688Z,8.80
2023-02-11T02:10:18.641Z,9.07
2023-02-11T02:13:24.899Z,9.13
2023-02-11T02:16:35.056Z,8.93
2023-02-11T02:20:12.371Z,9.10
2023-02-11T02:23:29.842Z,8.13
2023-02-11T02:26:55.158Z,7.83
2023-02-11T02:30:41.242Z,8.40
2023-02-11T02:33:54.137Z,8.50
2023-02-11T02:37:05.976Z,8.90
2023-02-11T02:40:16.368Z,9.07
2023-02-11T02:43:23.941Z,9.03
2023-02-11T02:46:32.236Z,8.67
2023-02-11T02:49:39.642Z,8.20
2023-02-11T02:52:57.925Z,9.13
2023-02-11T02:56:12.253Z,8.47
2023-02-11T02:59:28.714Z,8.97
2023-02-11T03:02:40.893Z,9.43
2023-02-11T03:05:54.945Z,8.43
2023-02-11T03:09:09.702Z,8.83
2023-02-11T03:12:18.395Z,9.30
2023-02-11T03:15:27.084Z,9.37
2023-02-11T03:18:33.575Z,8.77
2023-02-11T03:21:43.363Z,9.00
2023-02-11T03:24:49.712Z,9.47
2023-02-11T03:28:04.514Z,10.00
2023-02-11T03:31:15.886Z,9.50
2023-02-11T03:34:29.694Z,9.10
2023-02-11T03:37:40.880Z,9.23
2023-02-11T03:40:47.612Z,9.63
2023-02-11T03:43:57.018Z,9.73
2023-02-11T03:47:06.253Z,9.40
2023-02-11T03:50:15.659Z,9.20
2023-02-11T03:53:24.155Z,9.93
2023-02-11T03:56:34.291Z,10.07
2023-02-11T03:59:52.644Z,9.93
2023-02-11T04:02:58.268Z,9.93
2023-02-11T04:06:04.562Z,9.80
2023-02-11T04:09:12.166Z,10.50
2023-02-11T04:12:18.243Z,10.47
2023-02-11T04:15:24.025Z,10.90
2023-02-11T04:18:30.105Z,10.67
2023-02-11T04:21:35.638Z,10.17
2023-02-11T04:24:44.191Z,10.63
2023-02-11T04:27:49.902Z,11.97
2023-02-11T04:30:55.850Z,11.90
2023-02-11T04:34:01.676Z,11.67
2023-02-11T04:37:07.463Z,11.43
2023-02-11T04:40:14.721Z,11.90
2023-02-11T04:43:20.721Z,11.80
2023-02-11T04:46:26.343Z,11.67
2023-02-11T04:49:32.402Z,11.30
2023-02-11T04:52:38.412Z,10.57
2023-02-11T04:55:46.127Z,12.33
2023-02-11T04:58:51.866Z,10.90
2023-02-11T05:01:57.926Z,11.60
2023-02-11T05:05:03.568Z,12.50
2023-02-11T05:08:10.266Z,11.70
2023-02-11T05:11:19.520Z,12.43
2023-02-11T05:14:25.608Z,12.57
2023-02-11T05:17:31.479Z,12.93
2023-02-11T05:20:39.632Z,13.10
2023-02-11T05:23:45.725Z,12.53
2023-02-11T05:26:53.220Z,13.40
2023-02-11T05:29:58.709Z,13.10
2023-02-11T05:33:04.665Z,13.80
2023-02-11T05:36:12.738Z,14.23
2023-02-11T05:39:18.333Z,13.73
2023-02-11T05:42:25.646Z,15.03
2023-02-11T05:45:31.724Z,15.07
2023-02-11T05:48:37.283Z,14.83
2023-02-11T05:51:43.567Z,15.23
2023-02-11T05:54:49.424Z,15.37
2023-02-11T05:57:57.166Z,14.73
2023-02-11T06:01:02.752Z,14.57
2023-02-11T06:04:08.622Z,14.93
2023-02-11T06:07:14.244Z,14.83
2023-02-11T06:10:21.475Z,17.57
2023-02-11T06:13:28.294Z,15.83
2023-02-11T06:16:34.075Z,16.23
2023-02-11T06:19:39.991Z,14.77
2023-02-11T06:22:46.560Z,15.73
2023-02-11T06:25:53.086Z,15.80
2023-02-11T06:29:03.030Z,16.23
2023-02-11T06:32:23.306Z,16.07
2023-02-11T06:35:35.734Z,16.87
2023-02-11T06:38:41.447Z,17.83
2023-02-11T06:41:47.281Z,17.20
2023-02-11T06:44:54.931Z,18.10
2023-02-11T06:48:00.843Z,17.33
2023-02-11T06:51:09.479Z,17.03
2023-02-11T06:54:15.583Z,17.07
2023-02-11T06:57:21.480Z,17.57
2023-02-11T07:00:29.942Z,18.40
2023-02-11T07:03:36.368Z,18.10
2023-02-11T07:06:43.050Z,18.33
2023-02-11T07:09:48.830Z,18.50
2023-02-11T07:12:57.037Z,20.40
2023-02-11T07:16:07.621Z,20.63
2023-02-11T07:19:14.248Z,20.50
2023-02-11T07:22:19.924Z,22.80
2023-02-11T07:25:25.803Z,20.93
2023-02-11T07:28:32.432Z,22.47
2023-02-11T07:31:40.284Z,23.67
2023-02-11T07:34:48.117Z,22.50
2023-02-11T07:37:54.139Z,22.60
2023-02-11T07:41:01.652Z,23.17
2023-02-11T07:44:07.488Z,23.30
2023-02-11T07:47:14.448Z,23.27
2023-02-11T07:50:20.298Z,22.47
2023-02-11T07:53:25.938Z,23.57
2023-02-11T07:56:32.022Z,23.17
2023-02-11T07:59:37.766Z,23.13
2023-02-11T08:02:45.555Z,24.23
2023-02-11T08:05:51.612Z,23.50
2023-02-11T08:08:58.333Z,23.50
2023-02-11T08:12:04.482Z,24.43
2023-02-11T08:15:11.303Z,23.90
2023-02-11T08:18:18.166Z,25.07
2023-02-11T08:21:24.261Z,24.47
2023-02-11T08:24:29.967Z,24.57
2023-02-11T08:27:36.572Z,24.60
2023-02-11T08:30:42.239Z,27.33
2023-02-11T08:33:50.055Z,26.77
2023-02-11T08:36:55.749Z,25.93
2023-02-11T08:40:01.738Z,26.23
2023-02-11T08:43:08.199Z,28.03
2023-02-11T08:46:17.025Z,27.07
2023-02-11T08:49:24.518Z,27.13
2023-02-11T08:52:30.324Z,27.43
2023-02-11T08:55:36.244Z,26.93
2023-02-11T08:58:42.580Z,27.93
2023-02-11T09:01:48.325Z,28.23
2023-02-11T09:04:55.748Z,28.50
2023-02-11T09:08:01.294Z,28.10
2023-02-11T09:11:07.633Z,28.27
2023-02-11T09:14:19.057Z,28.60
2023-02-11T09:17:25.050Z,29.13
2023-02-11T09:20:32.457Z,28.73
2023-02-11T09:23:38.547Z,27.87
2023-02-11T09:26:44.499Z,29.43
2023-02-11T09:29:50.472Z,27.97
2023-02-11T09:32:55.718Z,27.73
2023-02-11T09:36:04.035Z,28.77
2023-02-11T09:39:13.873Z,27.77
2023-02-11T09:42:42.584Z,29.43
2023-02-11T09:45:48.781Z,28.73
2023-02-11T09:48:57.326Z,29.93
2023-02-11T09:52:09.280Z,28.80
2023-02-11T09:55:21.987Z,29.57
2023-02-11T09:58:30.720Z,28.27
2023-02-11T10:01:42.473Z,27.20
2023-02-11T10:05:16.437Z,28.50
2023-02-11T10:08:31.641Z,27.60
2023-02-11T10:11:47.312Z,27.50
2023-02-11T10:15:12.984Z,26.83
2023-02-11T10:18:41.504Z,27.37
2023-02-11T10:21:57.070Z,28.07
2023-02-11T10:25:18.183Z,28.83
2023-02-11T10:28:29.337Z,27.93
2023-02-11T10:31:40.931Z,28.13
2023-02-11T10:34:47.275Z,28.20
2023-02-11T10:37:53.283Z,28.93
2023-02-11T10:41:01.325Z,27.10
2023-02-11T10:44:08.334Z,28.97
2023-02-11T10:47:18.779Z,27.93
2023-02-11T10:50:27.111Z,28.03
2023-02-11T10:53:34.007Z,29.13
2023-02-11T10:56:45.843Z,29.00
2023-02-11T11:00:00.564Z,28.23
2023-02-11T11:03:15.976Z,29.23
2023-02-11T11:06:32.194Z,27.80
2023-02-11T11:09:48.124Z,27.50
2023-02-11T11:12:56.537Z,28.47
2023-02-11T11:16:27.567Z,27.10
2023-02-11T11:19:34.156Z,28.03
2023-02-11T11:22:40.025Z,29.20
2023-02-11T11:25:59.594Z,27.30
2023-02-11T11:29:11.909Z,27.27
2023-02-11T11:32:21.922Z,28.07
2023-02-11T11:35:29.278Z,27.13
2023-02-11T11:38:38.378Z,28.40
2023-02-11T11:41:51.952Z,28.77
2023-02-11T11:45:00.752Z,28.53
2023-02-11T11:48:13.974Z,28.60
2023-02-11T11:51:20.429Z,26.93
2023-02-11T11:54:28.832Z,27.13
2023-02-11T11:57:39.190Z,28.00
2023-02-11T12:00:54.743Z,27.00
2023-02-11T12:04:22.410Z,27.50
2023-02-11T12:07:40.315Z,26.53
2023-02-11T12:10:57.951Z,26.63
2023-02-11T12:14:16.116Z,26.23
2023-02-11T12:17:43.720Z,27.90
2023-02-11T12:21:07.422Z,27.10
2023-02-11T12:24:30.964Z,26.60
2023-02-11T12:27:49.671Z,27.47
2023-02-11T12:31:15.470Z,27.80
2023-02-11T12:34:52.977Z,27.43
2023-02-11T12:38:18.751Z,27.60
2023-02-11T12:42:03.574Z,27.20
2023-02-11T12:45:22.958Z,27.43
2023-02-11T12:48:41.796Z,27.73
2023-02-11T12:52:04.583Z,26.80
2023-02-11T12:55:20.450Z,27.63
2023-02-11T12:58:44.053Z,28.23
2023-02-11T13:01:52.636Z,26.77
2023-02-11T13:05:03.347Z,25.87
2023-02-11T13:08:15.828Z,28.83
2023-02-11T13:11:25.368Z,28.77
2023-02-11T13:14:35.332Z,27.80
2023-02-11T13:17:50.381Z,27.20
2023-02-11T13:21:03.983Z,26.87
2023-02-11T13:24:23.958Z,27.90
2023-02-11T13:27:39.957Z,27.67
2023-02-11T13:30:47.488Z,26.30
2023-02-11T13:33:54.036Z,26.23
2023-02-11T13:37:00.120Z,26.07
2023-02-11T13:40:22.037Z,27.57
2023-02-11T13:43:30.772Z,26.83
2023-02-11T13:46:55.645Z,28.27
2023-02-11T13:50:04.064Z,26.47
2023-02-11T13:53:09.932Z,27.60
2023-02-11T13:56:33.684Z,27.07
2023-02-11T13:59:48.215Z,26.53
2023-02-11T14:03:43.944Z,27.03
2023-02-11T14:07:39.424Z,26.53
2023-02-11T14:10:53.922Z,27.30
2023-02-11T14:14:30.631Z,25.93
2023-02-11T14:17:36.840Z,26.67
2023-02-11T14:20:44.684Z,27.20
2023-02-11T14:23:53.447Z,28.90
2023-02-11T14:27:02.798Z,27.03
2023-02-11T14:30:43.262Z,27.83
2023-02-11T14:34:31.973Z,27.90
2023-02-11T14:37:50.639Z,27.73
2023-02-11T14:41:03.044Z,29.47
2023-02-11T14:44:16.687Z,27.93
2023-02-11T14:47:30.522Z,28.67
2023-02-11T14:50:43.223Z,28.23
2023-02-11T14:53:52.159Z,28.43
2023-02-11T14:57:09.894Z,29.23
2023-02-11T15:00:19.735Z,28.27
2023-02-11T15:03:29.883Z,27.93
2023-02-11T15:06:39.196Z,27.37
2023-02-11T15:09:48.400Z,27.23
2023-02-11T15:12:54.607Z,28.63
2023-02-11T15:16:05.972Z,28.63
2023-02-11T15:19:24.516Z,26.50
2023-02-11T15:22:36.932Z,27.40
2023-02-11T15:25:52.569Z,27.17
2023-02-11T15:28:59.407Z,28.33
2023-02-11T15:32:14.629Z,28.83
2023-02-11T15:35:22.479Z,29.00
2023-02-11T15:38:29.841Z,29.27
2023-02-11T15:41:38.245Z,28.87
2023-02-11T15:44:44.015Z,28.73
2023-02-11T15:47:52.723Z,28.90
2023-02-11T15:51:03.396Z,27.47
2023-02-11T15:54:18.641Z,29.37
2023-02-11T15:57:24.642Z,28.47
2023-02-11T16:00:35.908Z,27.27
2023-02-11T16:03:43.313Z,27.73
2023-02-11T16:06:51.575Z,28.97
2023-02-11T16:09:59.304Z,28.97
2023-02-11T16:13:20.047Z,26.70
2023-02-11T16:16:28.948Z,28.60
2023-02-11T16:19:36.685Z,27.77
2023-02-11T16:22:47.495Z,28.93
2023-02-11T16:25:59.501Z,28.17
2023-02-11T16:29:14.725Z,27.97
2023-02-11T16:32:22.663Z,26.97
2023-02-11T16:35:28.370Z,28.70
2023-02-11T16:38:35.753Z,27.97
2023-02-11T16:41:42.126Z,27.10
2023-02-11T16:44:51.507Z,27.17
2023-02-11T16:47:57.746Z,28.03
2023-02-11T16:51:04.181Z,26.97
2023-02-11T16:54:16.168Z,27.07
2023-02-11T16:57:24.290Z,28.13
2023-02-11T17:00:30.781Z,27.33
2023-02-11T17:03:40.575Z,28.40
2023-02-11T17:06:48.127Z,29.27
2023-02-11T17:09:55.514Z,28.83
2023-02-11T17:13:01.691Z,28.23
2023-02-11T17:16:11.172Z,27.53
2023-02-11T17:19:20.940Z,27.57
2023-02-11T17:22:26.871Z,28.00
2023-02-11T17:25:34.238Z,29.57
2023-02-11T17:28:40.081Z,28.50
2023-02-11T17:31:46.224Z,28.13
2023-02-11T17:34:54.306Z,28.60
2023-02-11T17:38:01.440Z,28.60
2023-02-11T17:41:08.757Z,28.23
2023-02-11T17:44:16.339Z,27.63
2023-02-11T17:47:22.752Z,29.43
2023-02-11T17:50:29.525Z,28.80
2023-02-11T17:53:35.344Z,28.00
2023-02-11T17:56:43.449Z,29.33
2023-02-11T17:59:49.577Z,28.83
2023-02-11T18:02:57.592Z,29.70
2023-02-11T18:06:04.780Z,29.67
2023-02-11T18:09:11.313Z,29.53
2023-02-11T18:12:25.334Z,29.33
2023-02-11T18:15:30.799Z,28.57
2023-02-11T18:18:36.918Z,29.83
2023-02-11T18:21:43.123Z,29.47
2023-02-11T18:24:53.135Z,29.77
2023-02-11T18:28:00.248Z,28.47
2023-02-11T18:31:07.343Z,29.13
2023-02-11T18:34:14.268Z,29.97
2023-02-11T18:37:20.084Z,28.60
2023-02-11T18:40:25.956Z,28.93
2023-02-11T18:43:34.436Z,28.83
2023-02-11T18:46:40.539Z,31.00
2023-02-11T18:49:46.784Z,28.20
2023-02-11T18:52:52.550Z,27.83
2023-02-11T18:55:58.451Z,28.07
2023-02-11T18:59:05.694Z,28.40
2023-02-11T19:02:12.180Z,27.13
2023-02-11T19:05:18.117Z,27.67
2023-02-11T19:08:23.933Z,29.07
2023-02-11T19:11:50.192Z,29.97
2023-02-11T19:14:59.445Z,30.40
2023-02-11T19:18:05.597Z,30.20
2023-02-11T19:21:13.338Z,30.10
2023-02-11T19:24:20.109Z,28.57
2023-02-11T19:27:26.025Z,28.20
2023-02-11T19:30:33.214Z,29.00
2023-02-11T19:33:39.848Z,28.97
2023-02-11T19:36:45.956Z,27.90
2023-02-11T19:39:51.616Z,28.27
2023-02-11T19:42:57.454Z,30.53
2023-02-11T19:46:05.444Z,30.60
2023-02-11T19:49:15.396Z,30.67
2023-02-11T19:52:21.236Z,27.10
2023-02-11T19:55:26.994Z,31.50
2023-02-11T19:58:33.271Z,32.17
2023-02-11T20:01:40.849Z,29.70
2023-02-11T20:04:47.068Z,28.17
2023-02-11T20:07:52.615Z,30.57
2023-02-11T20:10:58.524Z,31.13
2023-02-11T20:14:05.104Z,27.03
2023-02-11T20:17:12.087Z,29.60
2023-02-11T20:20:18.520Z,29.80
2023-02-11T20:23:24.403Z,30.30
2023-02-11T20:26:31.556Z,30.47
2023-02-11T20:29:37.477Z,33.10
2023-02-11T20:32:44.440Z,33.43
2023-02-11T20:35:56.159Z,34.67
2023-02-11T20:39:02.937Z,33.73
2023-02-11T20:42:11.812Z,31.37
2023-02-11T20:45:17.280Z,31.63
2023-02-11T20:48:24.288Z,29.40
2023-02-11T20:51:32.913Z,30.40
2023-02-11T20:54:38.725Z,30.50
2023-02-11T20:57:44.711Z,30.87
2023-02-11T21:00:50.999Z,28.47
2023-02-11T21:04:00.180Z,27.87
2023-02-11T21:07:05.993Z,30.17
2023-02-11T21:10:12.350Z,30.03
2023-02-11T21:13:18.619Z,30.97
2023-02-11T21:16:24.480Z,30.33
2023-02-11T21:19:32.085Z,28.83
2023-02-11T21:22:37.597Z,30.53
2023-02-11T21:25:43.584Z,33.90
2023-02-11T21:28:50.077Z,33.00
2023-02-11T21:31:56.193Z,31.77
2023-02-11T21:35:03.344Z,29.27
2023-02-11T21:38:08.940Z,29.30
2023-02-11T21:41:14.848Z,28.30
2023-02-11T21:44:21.040Z,28.43
2023-02-11T21:47:26.642Z,28.00
2023-02-11T21:50:34.240Z,32.03
2023-02-11T21:53:39.937Z,45.13
2023-02-11T21:56:46.280Z,36.90
2023-02-11T21:59:52.038Z,38.40
2023-02-11T22:02:58.437Z,36.57
2023-02-11T22:06:09.373Z,31.90
2023-02-11T22:09:15.657Z,29.73
2023-02-11T22:12:21.659Z,27.97
2023-02-11T22:15:27.816Z,29.30
2023-02-11T22:18:33.491Z,30.80
2023-02-11T22:21:40.758Z,30.27
2023-02-11T22:24:47.414Z,29.03
2023-02-11T22:27:53.309Z,30.00
2023-02-11T22:30:59.478Z,29.47
2023-02-11T22:34:06.278Z,27.27
2023-02-11T22:37:13.209Z,27.27
2023-02-11T22:40:19.231Z,26.57
2023-02-11T22:43:25.109Z,26.47
2023-02-11T22:46:31.020Z,27.70
2023-02-11T22:49:37.361Z,28.30
2023-02-11T22:52:44.888Z,26.03
2023-02-11T22:55:51.110Z,26.93
2023-02-11T22:58:58.800Z,24.90
2023-02-11T23:02:04.465Z,28.23
2023-02-11T23:05:10.717Z,27.60
2023-02-11T23:08:18.378Z,27.30
2023-02-11T23:11:26.229Z,26.30
2023-02-11T23:14:31.862Z,25.53
2023-02-11T23:17:37.965Z,25.73
2023-02-11T23:20:44.832Z,26.43
2023-02-11T23:23:56.849Z,27.00
2023-02-11T23:27:02.670Z,24.53
2023-02-11T23:30:09.575Z,29.83
2023-02-11T23:33:15.124Z,24.83
2023-02-11T23:36:22.773Z,24.80
2023-02-11T23:39:29.675Z,23.13
2023-02-11T23:42:35.229Z,20.70
2023-02-11T23:45:40.852Z,19.03
2023-02-11T23:48:46.886Z,19.83
2023-02-11T23:51:52.880Z,18.60
2023-02-11T23:55:00.541Z,20.07
2023-02-11T23:58:06.657Z,20.40
